Time;durP1;ratioP1;P1;durP2;ratioP2;P2;SDS_P1;SDS_P2;PMS_P1;PMS_P2;Temp;Humidity;BMP_temperature;BMP_pressure;BME280_temperature;BME280_humidity;BME280_pressure;Samples;Min_cycle;Max_cycle;Signal;HPM_P1;HPM_P2
2021/12/30 00:00:16;;;;;;;42.28;4.00;;;8.70;99.90;;;;;;5095583;28;20069;-74
2021/12/30 00:02:42;;;;;;;26.92;2.50;;;8.70;99.90;;;;;;5113316;28;20096;-73
2021/12/30 00:05:08;;;;;;;42.88;4.80;;;8.60;99.90;;;;;;5096091;28;20082;-75
2021/12/30 00:07:34;;;;;;;51.95;4.53;;;8.70;99.90;;;;;;5113053;28;20051;-73
2021/12/30 00:10:00;;;;;;;57.63;4.82;;;8.60;99.90;;;;;;5129291;27;20043;-73
2021/12/30 00:12:26;;;;;;;49.40;3.60;;;8.50;99.90;;;;;;5111789;28;20428;-73
2021/12/30 00:14:52;;;;;;;51.63;4.28;;;8.50;99.90;;;;;;5113152;28;20099;-74
2021/12/30 00:17:17;;;;;;;55.83;4.93;;;8.40;99.90;;;;;;5112299;28;20408;-75
2021/12/30 00:19:43;;;;;;;45.45;4.38;;;8.40;99.90;;;;;;5094895;28;20134;-73
2021/12/30 00:22:09;;;;;;;64.60;4.55;;;8.30;99.90;;;;;;5112846;28;20167;-75
2021/12/30 00:24:35;;;;;;;39.65;3.83;;;8.30;99.90;;;;;;5113023;28;20059;-73
2021/12/30 00:27:01;;;;;;;52.78;4.10;;;8.20;99.90;;;;;;5094845;28;20333;-73
2021/12/30 00:29:27;;;;;;;58.10;4.45;;;8.20;99.90;;;;;;5061441;28;20108;-73
2021/12/30 00:31:53;;;;;;;49.25;4.93;;;8.20;99.90;;;;;;5094745;28;20047;-73
2021/12/30 00:34:19;;;;;;;49.83;4.28;;;8.10;99.90;;;;;;5113367;28;20047;-74
2021/12/30 00:36:45;;;;;;;60.55;6.05;;;8.10;99.90;;;;;;5129156;27;20092;-74
2021/12/30 00:39:10;;;;;;;54.05;4.57;;;8.00;99.90;;;;;;5077923;28;20048;-73
2021/12/30 00:41:36;;;;;;;49.97;5.00;;;8.00;99.90;;;;;;5111960;28;20086;-74
2021/12/30 00:44:02;;;;;;;56.75;4.88;;;8.00;99.90;;;;;;5113022;28;20487;-73
2021/12/30 00:46:28;;;;;;;53.07;4.90;;;8.00;99.90;;;;;;5077783;28;20043;-73
2021/12/30 00:48:54;;;;;;;54.95;5.00;;;8.00;99.90;;;;;;5098595;28;20139;-73
2021/12/30 00:51:20;;;;;;;53.60;4.63;;;8.00;99.90;;;;;;5081595;28;20047;-73
2021/12/30 00:53:46;;;;;;;48.03;4.35;;;8.00;99.90;;;;;;5116292;28;20105;-73
2021/12/30 00:56:12;;;;;;;60.60;6.15;;;8.20;99.90;;;;;;5098318;28;20130;-72
2021/12/30 00:58:37;;;;;;;40.03;4.13;;;8.20;99.90;;;;;;5132699;27;20052;-72
2021/12/30 01:01:05;;;;;;;56.40;5.03;;;8.10;99.90;;;;;;5098778;28;20058;-72
2021/12/30 01:03:31;;;;;;;;;;;8.10;99.90;;;;;;5133285;27;20051;-72
2021/12/30 01:05:57;;;;;;;50.60;4.38;;;8.10;99.90;;;;;;5098928;28;19920;-73
2021/12/30 01:08:23;;;;;;;55.57;5.60;;;8.10;99.90;;;;;;5116610;28;20050;-74
2021/12/30 01:10:49;;;;;;;43.08;4.78;;;8.10;99.90;;;;;;5081690;28;20463;-72
2021/12/30 01:13:22;;;;;;;58.55;5.43;;;8.10;99.90;;;;;;5116903;28;20120;-72
2021/12/30 01:16:03;;;;;;;52.10;4.93;;;8.00;99.90;;;;;;5116061;28;20056;-74
2021/12/30 01:18:43;;;;;;;63.63;6.72;;;8.00;99.90;;;;;;5100701;28;20047;-74
2021/12/30 01:21:12;;;;;;;52.80;5.10;;;8.00;99.90;;;;;;5116521;28;20066;-76
2021/12/30 01:23:41;;;;;;;62.00;5.68;;;8.00;99.90;;;;;;5115851;28;20055;-75
2021/12/30 01:26:08;;;;;;;78.35;6.35;;;8.00;99.90;;;;;;5132230;27;20448;-76
2021/12/30 01:28:34;;;;;;;68.88;6.45;;;8.10;99.90;;;;;;5116295;28;20040;-75
2021/12/30 01:31:00;;;;;;;57.38;5.75;;;8.00;99.90;;;;;;5098147;28;20070;-72
2021/12/30 01:33:27;;;;;;;54.90;5.95;;;8.00;99.90;;;;;;5114882;28;20073;-74
2021/12/30 01:35:53;;;;;;;66.32;6.03;;;8.00;99.90;;;;;;5065091;28;20055;-74
2021/12/30 01:38:19;;;;;;;51.80;4.90;;;8.00;99.90;;;;;;5098201;28;20131;-76
2021/12/30 01:40:48;;;;;;;53.28;5.57;;;8.00;99.90;;;;;;5131829;27;20456;-74
2021/12/30 01:43:14;;;;;;;49.40;5.53;;;8.00;99.90;;;;;;5116650;28;20050;-74
2021/12/30 01:45:42;;;;;;;63.05;6.10;;;8.10;99.90;;;;;;5115889;28;20070;-73
2021/12/30 01:48:09;;;;;;;65.55;5.93;;;8.10;99.90;;;;;;5115135;28;20061;-75
2021/12/30 01:50:36;;;;;;;57.78;5.97;;;8.10;99.90;;;;;;5080816;28;20388;-74
2021/12/30 01:53:03;;;;;;;52.28;6.18;;;8.20;99.90;;;;;;5131680;27;20345;-74
2021/12/30 01:55:31;;;;;;;61.80;6.35;;;8.40;99.90;;;;;;5097882;28;20214;-78
2021/12/30 01:57:57;;;;;;;73.47;7.50;;;8.50;99.90;;;;;;5114329;28;20096;-76
2021/12/30 02:00:24;;;;;;;53.13;7.05;;;8.50;99.90;;;;;;5114902;28;20044;-74
2021/12/30 02:02:50;;;;;;;61.22;8.45;;;8.60;99.90;;;;;;5131162;27;20070;-74
2021/12/30 02:05:17;;;;;;;76.22;9.50;;;8.70;99.90;;;;;;5097973;28;20051;-75
2021/12/30 02:07:43;;;;;;;80.07;10.05;;;8.80;99.90;;;;;;5115808;28;20069;-73
2021/12/30 02:10:12;;;;;;;70.72;10.68;;;8.80;99.90;;;;;;5114660;27;20059;-75
2021/12/30 02:12:39;;;;;;;70.95;11.85;;;9.00;99.90;;;;;;5115733;28;20057;-74
2021/12/30 02:15:09;;;;;;;68.85;10.60;;;9.00;99.90;;;;;;5115479;28;20079;-75
2021/12/30 02:17:35;;;;;;;65.18;12.63;;;9.00;99.90;;;;;;5080924;28;20368;-74
2021/12/30 02:20:06;;;;;;;69.95;12.65;;;9.10;99.90;;;;;;5131206;27;20058;-73
2021/12/30 02:22:32;;;;;;;72.13;11.68;;;9.10;99.90;;;;;;5114958;28;20150;-78
2021/12/30 02:24:59;;;;;;;68.38;13.25;;;9.10;99.90;;;;;;5115046;28;20146;-74
2021/12/30 02:27:26;;;;;;;75.78;12.93;;;9.20;99.90;;;;;;5080089;28;20400;-74
2021/12/30 02:29:52;;;;;;;73.97;12.88;;;9.20;99.90;;;;;;5096949;28;20454;-75
2021/12/30 02:32:21;;;;;;;65.70;13.98;;;9.30;99.90;;;;;;5096986;28;20050;-73
2021/12/30 02:34:48;;;;;;;77.47;14.30;;;9.30;99.90;;;;;;5114994;28;20363;-74
2021/12/30 02:37:18;;;;;;;;;;;9.30;99.90;;;;;;5097151;28;20044;-74
2021/12/30 02:39:49;;;;;;;76.00;11.70;;;9.40;99.90;;;;;;5080234;28;20267;-74
2021/12/30 02:42:15;;;;;;;74.75;12.95;;;9.40;99.90;;;;;;5114948;28;20054;-74
2021/12/30 02:44:40;;;;;;;68.43;11.75;;;9.50;99.90;;;;;;5079583;28;20047;-74
2021/12/30 02:47:06;;;;;;;90.85;14.68;;;9.40;99.90;;;;;;5079420;28;20044;-74
2021/12/30 02:49:32;;;;;;;74.20;13.20;;;9.40;99.90;;;;;;5079770;28;20047;-78
2021/12/30 02:51:58;;;;;;;90.82;13.60;;;9.50;99.90;;;;;;5114665;28;20146;-74
2021/12/30 02:54:24;;;;;;;77.85;13.98;;;9.50;99.90;;;;;;5097230;28;20360;-76
2021/12/30 02:56:50;;;;;;;75.30;13.82;;;9.50;99.90;;;;;;5114670;28;20047;-75
2021/12/30 02:59:18;;;;;;;77.45;14.38;;;9.50;99.90;;;;;;5114816;28;20043;-74
2021/12/30 03:01:44;;;;;;;75.55;14.00;;;9.60;99.90;;;;;;5113195;28;20047;-73
2021/12/30 03:04:12;;;;;;;78.63;13.45;;;9.60;99.90;;;;;;5114690;28;20052;-77
2021/12/30 03:06:38;;;;;;;89.85;13.65;;;9.60;99.90;;;;;;5096392;28;20085;-75
2021/12/30 03:09:04;;;;;;;84.22;13.20;;;9.70;99.90;;;;;;5079038;28;20499;-73
2021/12/30 03:11:30;;;;;;;65.40;12.65;;;9.70;99.90;;;;;;5096082;28;20049;-74
2021/12/30 03:13:56;;;;;;;77.53;12.80;;;9.70;99.90;;;;;;5114260;28;20431;-75
2021/12/30 03:16:32;;;;;;;73.07;13.20;;;9.70;99.90;;;;;;5095851;28;20044;-76
2021/12/30 03:18:58;;;;;;;71.45;13.13;;;9.70;99.90;;;;;;5113717;28;20480;-75
2021/12/30 03:21:25;;;;;;;80.40;13.18;;;9.70;99.90;;;;;;5096400;28;20150;-74
2021/12/30 03:23:53;;;;;;;81.85;11.75;;;9.70;99.90;;;;;;5095772;28;20312;-76
2021/12/30 03:26:20;;;;;;;68.18;11.57;;;9.80;99.90;;;;;;5113995;28;20055;-74
2021/12/30 03:28:47;;;;;;;80.15;13.50;;;9.80;99.90;;;;;;5078959;28;20047;-75
2021/12/30 03:31:15;;;;;;;64.47;10.98;;;9.80;99.90;;;;;;5095603;28;20040;-75
2021/12/30 03:33:42;;;;;;;71.75;12.90;;;9.80;99.90;;;;;;5112639;27;20051;-79
2021/12/30 03:36:09;;;;;;;71.57;12.95;;;9.80;99.90;;;;;;5129507;27;20558;-74
2021/12/30 03:38:38;;;;;;;85.57;13.77;;;9.90;99.90;;;;;;5112985;28;20092;-75
2021/12/30 03:41:07;;;;;;;77.15;12.23;;;9.90;99.90;;;;;;5113889;28;20039;-76
2021/12/30 03:43:33;;;;;;;66.28;11.40;;;9.90;99.90;;;;;;5113663;28;20046;-74
2021/12/30 03:45:59;;;;;;;65.05;10.80;;;10.00;99.90;;;;;;5113798;28;20062;-75
2021/12/30 03:48:32;;;;;;;64.75;11.95;;;10.00;99.90;;;;;;5096075;28;20372;-74
2021/12/30 03:51:04;;;;;;;72.95;11.52;;;10.00;99.90;;;;;;5096640;28;20043;-74
2021/12/30 03:53:30;;;;;;;63.22;10.75;;;10.00;99.90;;;;;;5079097;28;20068;-76
2021/12/30 03:55:56;;;;;;;73.75;10.85;;;10.10;99.90;;;;;;5095873;28;20464;-76
2021/12/30 03:58:21;;;;;;;68.25;10.80;;;10.10;99.90;;;;;;5095218;28;20046;-75
2021/12/30 04:00:47;;;;;;;69.32;10.52;;;10.10;99.90;;;;;;5095239;28;20557;-75
2021/12/30 04:03:13;;;;;;;67.55;10.55;;;10.10;99.90;;;;;;5112929;28;20054;-74
2021/12/30 04:05:39;;;;;;;68.65;11.55;;;10.10;99.90;;;;;;5095027;28;20445;-74
2021/12/30 04:08:07;;;;;;;71.68;10.95;;;10.20;99.90;;;;;;5095755;28;20077;-75
2021/12/30 04:10:34;;;;;;;74.30;11.27;;;10.20;99.90;;;;;;5130035;27;20388;-76
2021/12/30 04:13:00;;;;;;;69.95;11.23;;;10.20;99.90;;;;;;5094663;28;20044;-74
2021/12/30 04:15:25;;;;;;;72.15;11.35;;;10.30;99.90;;;;;;5061471;28;20490;-75
2021/12/30 04:17:51;;;;;;;84.72;11.60;;;10.30;99.90;;;;;;5094896;28;20054;-74
2021/12/30 04:20:17;;;;;;;67.60;11.20;;;10.40;99.90;;;;;;5095382;28;20039;-74
2021/12/30 04:22:43;;;;;;;71.88;11.73;;;10.40;99.90;;;;;;5112629;28;20052;-79
2021/12/30 04:25:12;;;;;;;75.03;11.77;;;10.40;99.90;;;;;;5111869;28;20047;-75
2021/12/30 04:27:39;;;;;;;67.13;10.85;;;10.40;99.90;;;;;;5128742;27;20043;-75
2021/12/30 04:30:07;;;;;;;82.40;11.65;;;10.50;99.90;;;;;;5078693;28;20078;-75
2021/12/30 04:32:33;;;;;;;73.68;11.75;;;10.50;99.90;;;;;;5078152;28;20396;-74
2021/12/30 04:34:58;;;;;;;71.43;13.70;;;10.50;99.90;;;;;;5111784;28;20124;-73
2021/12/30 04:37:24;;;;;;;73.43;12.27;;;10.60;99.90;;;;;;5078044;28;20090;-74
2021/12/30 04:39:50;;;;;;;81.07;13.57;;;10.50;99.90;;;;;;5077955;28;20039;-75
2021/12/30 04:42:16;;;;;;;75.25;13.23;;;10.60;99.90;;;;;;5077855;28;20123;-75
2021/12/30 04:44:43;;;;;;;74.60;13.05;;;10.60;99.90;;;;;;5112576;28;20051;-74
2021/12/30 04:47:09;;;;;;;76.30;13.40;;;10.60;99.90;;;;;;5094857;28;20122;-73
2021/12/30 04:49:35;;;;;;;87.35;14.25;;;10.60;99.90;;;;;;5128797;28;20142;-73
2021/12/30 04:52:03;;;;;;;81.80;13.50;;;10.60;99.90;;;;;;5094437;28;20118;-75
2021/12/30 04:54:29;;;;;;;75.55;13.85;;;10.60;99.90;;;;;;5094886;28;20054;-72
2021/12/30 04:56:55;;;;;;;68.37;13.67;;;10.60;99.90;;;;;;5078581;28;20055;-74
2021/12/30 04:59:21;;;;;;;65.57;13.07;;;10.60;99.90;;;;;;5112705;28;20047;-76
2021/12/30 05:01:47;;;;;;;84.20;14.27;;;10.60;99.90;;;;;;5094134;28;20088;-78
2021/12/30 05:04:13;;;;;;;76.45;13.27;;;10.60;99.90;;;;;;5093935;28;20063;-75
2021/12/30 05:06:38;;;;;;;73.53;13.27;;;10.60;99.90;;;;;;5111617;28;20047;-75
2021/12/30 05:09:08;;;;;;;62.17;13.00;;;10.60;99.90;;;;;;5077966;28;20040;-74
2021/12/30 05:11:42;;;;;;;57.05;12.10;;;10.60;99.90;;;;;;5112795;28;20058;-74
2021/12/30 05:14:12;;;;;;;61.00;12.45;;;10.60;99.90;;;;;;5111626;28;20135;-77
2021/12/30 05:16:38;;;;;;;68.50;13.73;;;10.70;99.90;;;;;;5077755;28;20058;-77
2021/12/30 05:19:05;;;;;;;74.80;16.05;;;10.70;99.90;;;;;;5112436;28;20036;-76
2021/12/30 05:21:31;;;;;;;68.57;12.85;;;10.60;99.90;;;;;;5094618;28;20044;-75
2021/12/30 05:23:57;;;;;;;73.20;13.05;;;10.60;99.90;;;;;;5094154;28;20388;-76
2021/12/30 05:26:27;;;;;;;67.33;14.53;;;10.60;99.90;;;;;;5112252;28;20463;-74
2021/12/30 05:28:54;;;;;;;56.45;12.27;;;10.60;99.90;;;;;;5112302;28;20381;-76
2021/12/30 05:31:20;;;;;;;80.93;13.90;;;10.70;99.90;;;;;;5128455;28;20051;-75
2021/12/30 05:33:46;;;;;;;69.85;14.40;;;10.70;99.90;;;;;;5112639;28;20390;-76
2021/12/30 05:36:11;;;;;;;72.75;13.50;;;10.70;99.90;;;;;;5080831;28;20046;-75
2021/12/30 05:38:37;;;;;;;67.25;13.35;;;10.70;99.90;;;;;;5098189;28;20134;-74
2021/12/30 05:41:03;;;;;;;71.07;13.18;;;10.70;99.90;;;;;;5081497;28;20052;-76
2021/12/30 05:43:28;;;;;;;73.47;14.43;;;10.70;99.90;;;;;;5116015;28;20151;-73
2021/12/30 05:45:54;;;;;;;74.55;13.77;;;10.80;99.90;;;;;;5081142;28;20072;-75
2021/12/30 05:48:20;;;;;;;68.63;12.90;;;10.80;99.90;;;;;;5097859;28;20040;-76
2021/12/30 05:50:46;;;;;;;84.57;13.75;;;10.90;99.90;;;;;;5080482;28;20150;-76
2021/12/30 05:53:12;;;;;;;69.57;14.07;;;11.00;99.90;;;;;;5114877;28;20047;-75
2021/12/30 05:55:38;;;;;;;79.80;13.95;;;10.90;99.90;;;;;;5098450;28;20493;-75
2021/12/30 05:58:04;;;;;;;72.40;14.30;;;10.90;99.90;;;;;;5098312;28;20065;-75
2021/12/30 06:00:34;;;;;;;91.15;15.90;;;11.00;99.90;;;;;;5115737;28;20507;-78
2021/12/30 06:03:00;;;;;;;85.65;14.82;;;11.10;99.90;;;;;;5080614;28;20048;-75
2021/12/30 06:05:26;;;;;;;94.93;15.63;;;11.10;99.90;;;;;;5114135;28;20048;-75
2021/12/30 06:07:52;;;;;;;91.78;15.25;;;11.00;99.90;;;;;;5115813;28;20532;-78
2021/12/30 06:10:18;;;;;;;87.68;15.90;;;11.10;99.90;;;;;;5079853;28;20074;-73
2021/12/30 06:12:45;;;;;;;85.10;15.33;;;11.20;99.90;;;;;;5114490;28;20422;-74
2021/12/30 06:15:12;;;;;;;99.00;15.52;;;11.20;99.90;;;;;;5097791;28;20326;-76
2021/12/30 06:17:39;;;;;;;85.22;15.40;;;11.30;99.90;;;;;;5115506;28;20177;-76
2021/12/30 06:20:07;;;;;;;87.00;15.73;;;11.30;99.90;;;;;;5097355;28;20052;-76
2021/12/30 06:22:33;;;;;;;86.47;14.35;;;11.30;99.90;;;;;;5115504;28;20051;-76
2021/12/30 06:24:59;;;;;;;76.07;15.27;;;11.30;99.90;;;;;;5097916;28;20047;-74
2021/12/30 06:27:24;;;;;;;83.82;16.38;;;11.30;99.90;;;;;;5096894;28;20489;-74
2021/12/30 06:29:50;;;;;;;82.07;15.45;;;11.40;99.90;;;;;;5097000;28;20044;-75
2021/12/30 06:32:16;;;;;;;79.55;14.73;;;11.50;99.90;;;;;;5096616;28;20046;-73
2021/12/30 06:34:42;;;;;;;69.32;13.77;;;11.50;99.90;;;;;;5115596;28;20115;-74
2021/12/30 06:37:08;;;;;;;71.95;13.32;;;11.50;99.90;;;;;;5063383;28;20048;-74
2021/12/30 06:39:33;;;;;;;50.70;8.45;;;11.50;99.90;;;;;;5080435;28;20126;-75
2021/12/30 06:41:59;;;;;;;69.72;13.43;;;11.50;99.90;;;;;;5115054;28;20044;-78
2021/12/30 06:44:25;;;;;;;68.50;13.57;;;11.60;99.90;;;;;;5114602;28;20043;-75
2021/12/30 06:46:59;;;;;;;64.47;13.77;;;11.50;99.90;;;;;;5079598;28;20118;-74
2021/12/30 06:49:25;;;;;;;50.33;12.52;;;11.50;99.90;;;;;;5115017;28;20159;-75
2021/12/30 06:51:52;;;;;;;70.10;13.88;;;11.50;99.90;;;;;;5096689;28;20053;-76
2021/12/30 06:54:18;;;;;;;68.47;12.23;;;11.50;99.90;;;;;;5080132;28;20487;-73
2021/12/30 06:56:44;;;;;;;59.65;12.70;;;11.50;99.90;;;;;;5096855;28;20079;-76
2021/12/30 06:59:15;;;;;;;56.03;11.98;;;11.60;99.90;;;;;;5096505;28;20048;-74
2021/12/30 07:01:43;;;;;;;52.10;11.88;;;11.60;99.90;;;;;;5130941;27;20048;-75
2021/12/30 07:04:09;;;;;;;60.60;10.77;;;11.60;99.90;;;;;;5129809;27;20062;-75
2021/12/30 07:06:34;;;;;;;45.25;9.82;;;11.60;99.90;;;;;;5097134;28;20460;-74
2021/12/30 07:09:00;;;;;;;43.53;9.57;;;11.60;99.90;;;;;;5096059;28;20126;-74
2021/12/30 07:11:26;;;;;;;42.78;9.52;;;11.60;99.90;;;;;;5096281;28;20479;-74
2021/12/30 07:13:52;;;;;;;43.83;8.85;;;11.50;99.90;;;;;;5079101;28;20158;-76
2021/12/30 07:16:17;;;;;;;39.63;8.57;;;11.60;99.90;;;;;;5114400;28;20091;-75
2021/12/30 07:18:43;;;;;;;38.63;7.65;;;11.60;99.90;;;;;;5096222;28;20043;-79
2021/12/30 07:21:09;;;;;;;34.63;7.55;;;11.60;99.90;;;;;;5096500;28;20040;-74
2021/12/30 07:23:34;;;;;;;29.13;7.05;;;11.60;99.90;;;;;;5079004;28;20039;-77
2021/12/30 07:26:00;;;;;;;24.50;6.18;;;11.60;99.90;;;;;;5114693;28;20043;-77
2021/12/30 07:28:26;;;;;;;25.67;5.97;;;11.60;99.90;;;;;;5114172;28;20102;-75
2021/12/30 07:30:52;;;;;;;23.23;6.18;;;11.60;99.90;;;;;;5096093;28;20051;-74
2021/12/30 07:33:17;;;;;;;19.98;5.50;;;11.70;99.90;;;;;;5095640;28;20046;-73
2021/12/30 07:35:43;;;;;;;22.15;4.80;;;11.70;99.90;;;;;;5114384;28;20047;-74
2021/12/30 07:38:09;;;;;;;17.10;4.53;;;11.70;99.90;;;;;;5095627;28;20048;-74
2021/12/30 07:40:35;;;;;;;17.30;5.25;;;11.70;99.90;;;;;;5129801;27;20051;-75
2021/12/30 07:43:01;;;;;;;20.13;4.80;;;11.70;99.90;;;;;;5078790;28;20043;-79
2021/12/30 07:45:27;;;;;;;17.73;4.30;;;11.70;99.90;;;;;;5096292;28;20047;-74
2021/12/30 07:47:53;;;;;;;17.77;4.60;;;11.70;99.90;;;;;;5096092;28;20049;-74
2021/12/30 07:50:21;;;;;;;16.55;4.72;;;11.70;99.90;;;;;;5112548;28;20372;-75
2021/12/30 07:52:47;;;;;;;17.30;4.55;;;11.70;99.90;;;;;;5079083;28;20384;-75
2021/12/30 07:55:13;;;;;;;21.70;4.72;;;11.70;99.90;;;;;;5114149;28;20047;-75
2021/12/30 07:57:40;;;;;;;17.48;4.32;;;11.70;99.90;;;;;;5113014;28;20126;-76
2021/12/30 08:00:09;;;;;;;19.83;4.20;;;11.70;99.90;;;;;;5112299;28;20166;-75
2021/12/30 08:02:35;;;;;;;17.42;4.70;;;11.70;99.90;;;;;;5095033;28;20112;-75
2021/12/30 08:05:00;;;;;;;16.73;3.92;;;11.70;99.90;;;;;;5114221;28;20051;-74
2021/12/30 08:07:26;;;;;;;11.52;3.55;;;11.70;99.90;;;;;;5079140;28;20138;-76
2021/12/30 08:09:53;;;;;;;16.35;4.35;;;11.70;99.90;;;;;;5078194;28;20051;-74
2021/12/30 08:12:18;;;;;;;13.45;4.18;;;11.70;99.90;;;;;;5094637;28;20483;-72
2021/12/30 08:14:44;;;;;;;16.08;4.90;;;11.80;99.90;;;;;;5078371;28;20054;-74
2021/12/30 08:17:10;;;;;;;18.95;5.20;;;11.80;99.90;;;;;;5095010;28;20123;-75
2021/12/30 08:19:36;;;;;;;20.05;5.45;;;11.80;99.90;;;;;;5094840;28;20047;-75
2021/12/30 08:22:03;;;;;;;21.17;5.28;;;11.90;99.90;;;;;;5061750;28;20043;-74
2021/12/30 08:24:29;;;;;;;;;;;11.90;99.90;;;;;;5112718;28;20138;-75
2021/12/30 08:26:56;;;;;;;30.70;6.97;;;12.00;99.90;;;;;;5128945;27;19920;-74
2021/12/30 08:29:22;;;;;;;32.75;8.65;;;11.90;99.90;;;;;;5095155;28;20051;-77
2021/12/30 08:31:48;;;;;;;32.67;9.45;;;12.00;99.90;;;;;;5113035;28;20054;-75
2021/12/30 08:34:13;;;;;;;28.40;8.45;;;12.00;99.90;;;;;;5112971;28;20044;-74
2021/12/30 08:36:39;;;;;;;30.38;9.60;;;12.10;99.90;;;;;;5094874;28;20042;-75
2021/12/30 08:39:05;;;;;;;36.40;9.43;;;12.10;99.90;;;;;;5112891;28;20047;-75
2021/12/30 08:41:32;;;;;;;29.52;7.75;;;12.10;99.90;;;;;;5078161;28;20398;-74
2021/12/30 08:43:57;;;;;;;29.35;10.95;;;12.10;99.90;;;;;;5128528;27;20487;-76
2021/12/30 08:46:23;;;;;;;32.25;11.43;;;12.10;99.90;;;;;;5077581;28;20092;-75
2021/12/30 08:48:49;;;;;;;38.55;11.38;;;12.10;99.90;;;;;;5112705;28;20044;-74
2021/12/30 08:51:15;;;;;;;35.75;11.80;;;12.10;99.90;;;;;;5095523;28;20054;-75
2021/12/30 08:53:41;;;;;;;38.55;11.85;;;12.10;99.90;;;;;;5077363;28;20040;-74
2021/12/30 08:56:14;;;;;;;36.88;12.93;;;12.20;99.90;;;;;;5111791;28;20070;-73
2021/12/30 08:58:40;;;;;;;35.97;11.18;;;12.10;99.90;;;;;;5112822;28;20043;-78
2021/12/30 09:01:07;;;;;;;41.75;11.93;;;12.10;99.90;;;;;;5094312;28;20052;-74
2021/12/30 09:03:32;;;;;;;32.40;11.10;;;12.10;99.90;;;;;;5077497;28;20446;-74
2021/12/30 09:05:58;;;;;;;32.88;10.20;;;12.10;99.90;;;;;;5094374;28;20334;-75
2021/12/30 09:08:24;;;;;;;39.63;13.10;;;12.20;99.90;;;;;;5080165;28;20352;-75
2021/12/30 09:10:50;;;;;;;39.53;11.48;;;12.20;99.90;;;;;;5117605;28;20063;-76
2021/12/30 09:13:18;;;;;;;37.58;9.75;;;12.10;99.90;;;;;;5098826;28;20062;-75
2021/12/30 09:15:45;;;;;;;29.80;9.20;;;12.10;99.90;;;;;;5116028;27;20475;-74
2021/12/30 09:18:12;;;;;;;36.78;9.95;;;12.10;99.90;;;;;;5098586;28;20044;-75
2021/12/30 09:20:40;;;;;;;31.05;10.13;;;12.10;99.90;;;;;;5116701;28;20052;-74
2021/12/30 09:23:09;;;;;;;29.67;9.65;;;12.10;99.90;;;;;;5098160;28;20131;-74
2021/12/30 09:25:37;;;;;;;32.15;9.70;;;12.10;99.90;;;;;;5132079;27;20079;-74
2021/12/30 09:28:03;;;;;;;36.22;10.45;;;12.10;99.90;;;;;;5098128;28;20051;-73
2021/12/30 09:30:30;;;;;;;33.85;10.02;;;12.10;99.90;;;;;;5097943;28;20097;-74
2021/12/30 09:33:00;;;;;;;41.25;11.52;;;12.10;99.90;;;;;;5132844;27;20482;-73
2021/12/30 09:35:26;;;;;;;30.65;8.80;;;12.10;99.90;;;;;;5116527;28;20131;-75
2021/12/30 09:37:52;;;;;;;38.15;10.13;;;12.10;99.90;;;;;;5097753;28;20488;-74
2021/12/30 09:40:19;;;;;;;28.80;8.70;;;12.10;99.90;;;;;;5116270;28;20057;-76
2021/12/30 09:42:49;;;;;;;33.40;10.02;;;12.10;99.90;;;;;;5098293;28;20040;-74
2021/12/30 09:45:16;;;;;;;38.03;11.52;;;12.10;99.90;;;;;;5115735;27;20096;-75
2021/12/30 09:47:49;;;;;;;35.45;10.63;;;12.10;99.90;;;;;;5098164;28;20142;-74
2021/12/30 09:50:16;;;;;;;31.35;10.18;;;12.20;99.90;;;;;;5116409;28;20092;-75
2021/12/30 09:52:42;;;;;;;44.90;11.55;;;12.20;99.90;;;;;;5080693;28;20048;-73
2021/12/30 09:55:09;;;;;;;35.75;11.05;;;12.10;99.90;;;;;;5080992;28;20051;-74
2021/12/30 09:57:36;;;;;;;37.40;9.98;;;12.10;99.90;;;;;;5098502;28;20047;-75
2021/12/30 10:00:05;;;;;;;38.90;10.57;;;12.10;99.90;;;;;;5132208;27;20181;-74
2021/12/30 10:02:31;;;;;;;30.70;8.65;;;12.20;99.90;;;;;;5114685;28;20479;-74
2021/12/30 10:05:08;;;;;;;32.33;10.68;;;12.20;99.90;;;;;;5114556;27;20064;-75
2021/12/30 10:07:34;;;;;;;28.95;8.60;;;12.20;99.90;;;;;;5115164;28;20055;-75
2021/12/30 10:10:03;;;;;;;30.15;8.95;;;12.20;99.90;;;;;;5080496;28;20100;-74
2021/12/30 10:12:33;;;;;;;27.45;8.15;;;12.20;99.90;;;;;;5065076;28;20134;-75
2021/12/30 10:14:59;;;;;;;30.63;8.10;;;12.20;99.90;;;;;;5080655;28;20048;-75
2021/12/30 10:17:28;;;;;;;33.90;9.10;;;12.20;99.90;;;;;;5064150;28;20116;-74
2021/12/30 10:19:55;;;;;;;33.22;8.10;;;12.20;99.90;;;;;;5114333;28;20108;-74
2021/12/30 10:22:23;;;;;;;39.58;8.75;;;12.20;99.90;;;;;;5097891;28;20070;-74
2021/12/30 10:24:51;;;;;;;39.10;8.40;;;12.20;99.90;;;;;;5115534;28;20086;-74
2021/12/30 10:27:32;;;;;;;33.03;8.27;;;12.30;99.90;;;;;;5115363;28;20039;-74
2021/12/30 10:29:58;;;;;;;26.73;6.65;;;12.30;99.90;;;;;;5097733;28;20463;-76
2021/12/30 10:32:27;;;;;;;29.45;7.60;;;12.30;99.90;;;;;;5080300;28;20046;-76
2021/12/30 10:35:11;;;;;;;43.60;7.47;;;12.30;99.90;;;;;;5114924;28;20482;-75
2021/12/30 10:37:42;;;;;;;27.38;7.20;;;12.30;99.90;;;;;;5097184;28;20202;-75
2021/12/30 10:40:26;;;;;;;40.80;7.80;;;12.30;99.90;;;;;;5115936;28;20383;-74
2021/12/30 10:42:51;;;;;;;32.58;8.52;;;12.40;99.90;;;;;;5114400;28;20039;-75
2021/12/30 10:45:20;;;;;;;34.88;8.32;;;12.30;99.90;;;;;;5079988;28;20538;-79
2021/12/30 10:47:53;;;;;;;32.10;7.50;;;12.30;99.90;;;;;;5115591;28;20507;-74
2021/12/30 10:50:22;;;;;;;49.17;8.40;;;12.30;99.90;;;;;;5114978;28;20445;-76
2021/12/30 10:52:52;;;;;;;35.80;7.10;;;12.30;99.90;;;;;;5096747;28;20044;-74
2021/12/30 10:55:18;;;;;;;32.88;7.65;;;12.30;99.90;;;;;;5080020;28;20573;-80
2021/12/30 10:57:45;;;;;;;42.97;6.68;;;12.30;99.90;;;;;;5080151;28;20062;-74
2021/12/30 11:00:27;;;;;;;42.75;7.25;;;12.30;99.90;;;;;;5096196;28;20540;-74
2021/12/30 11:02:52;;;;;;;35.67;6.80;;;12.30;99.90;;;;;;5096836;28;20059;-74
2021/12/30 11:05:18;;;;;;;39.03;7.63;;;12.30;99.90;;;;;;5096429;28;20070;-78
2021/12/30 11:07:53;;;;;;;46.35;7.18;;;12.40;99.90;;;;;;5096449;28;20187;-74
2021/12/30 11:10:34;;;;;;;50.08;7.78;;;12.40;99.90;;;;;;5080783;28;20168;-74
2021/12/30 11:13:11;;;;;;;40.70;7.70;;;12.40;99.90;;;;;;5095892;28;20032;-74
2021/12/30 11:15:37;;;;;;;39.63;7.20;;;12.30;99.90;;;;;;5096530;28;20105;-72
2021/12/30 11:18:16;;;;;;;46.03;7.17;;;12.30;99.90;;;;;;5130207;27;20463;-74
2021/12/30 11:20:45;;;;;;;41.08;7.55;;;12.30;99.90;;;;;;5114222;28;20051;-74
2021/12/30 11:23:12;;;;;;;37.97;7.95;;;12.20;99.90;;;;;;5130262;27;20047;-75
2021/12/30 11:25:38;;;;;;;42.63;7.82;;;12.20;99.90;;;;;;5114678;28;20149;-74
2021/12/30 11:28:04;;;;;;;51.10;8.00;;;12.30;99.90;;;;;;5096129;28;20044;-74
2021/12/30 11:30:31;;;;;;;45.73;8.33;;;12.20;99.90;;;;;;5096020;28;20044;-74
2021/12/30 11:32:57;;;;;;;53.83;8.63;;;12.20;99.90;;;;;;5094747;28;20039;-75
2021/12/30 11:35:26;;;;;;;35.38;7.05;;;12.20;99.90;;;;;;5114049;28;20131;-76
2021/12/30 11:37:52;;;;;;;48.80;7.55;;;12.20;99.90;;;;;;5079005;28;20078;-73
2021/12/30 11:40:23;;;;;;;39.55;6.75;;;12.20;99.90;;;;;;5114052;28;20140;-74
2021/12/30 11:42:53;;;;;;;49.00;9.15;;;12.20;99.90;;;;;;5080135;28;20044;-73
2021/12/30 11:45:27;;;;;;;51.03;7.63;;;12.20;99.90;;;;;;5113977;28;20051;-74
2021/12/30 11:47:55;;;;;;;49.08;7.65;;;12.30;99.90;;;;;;5114211;28;20052;-73
2021/12/30 11:50:30;;;;;;;43.33;8.43;;;12.20;99.90;;;;;;5095206;28;20079;-76
2021/12/30 11:53:25;;;;;;;46.03;8.88;;;12.20;99.90;;;;;;5113097;28;20043;-77
2021/12/30 11:56:10;;;;;;;56.13;9.23;;;12.20;99.90;;;;;;5092930;28;20499;-75
2021/12/30 11:58:44;;;;;;;39.10;8.35;;;12.20;99.90;;;;;;5095679;28;20043;-74
2021/12/30 12:01:10;;;;;;;46.08;8.45;;;12.10;99.90;;;;;;5112774;28;20421;-74
2021/12/30 12:03:44;;;;;;;51.40;9.00;;;12.10;99.90;;;;;;5078258;28;20070;-75
2021/12/30 12:06:25;;;;;;;40.70;9.18;;;12.10;99.90;;;;;;5130287;27;20177;-73
2021/12/30 12:09:13;;;;;;;40.72;7.97;;;12.10;99.90;;;;;;5094857;28;20506;-74
2021/12/30 12:11:42;;;;;;;52.75;7.70;;;12.10;99.90;;;;;;5078083;28;20055;-75
2021/12/30 12:14:15;;;;;;;35.60;7.63;;;12.10;99.90;;;;;;5129080;27;20063;-76
2021/12/30 12:16:47;;;;;;;44.33;8.30;;;12.10;99.90;;;;;;5113498;28;20140;-74
2021/12/30 12:19:15;;;;;;;33.50;7.20;;;12.20;99.90;;;;;;5129749;27;20069;-73
2021/12/30 12:21:53;;;;;;;36.38;7.47;;;12.20;99.90;;;;;;5129721;27;20409;-73
2021/12/30 12:24:22;;;;;;;37.40;7.88;;;12.20;99.90;;;;;;5129207;27;20424;-74
2021/12/30 12:26:48;;;;;;;39.28;8.10;;;12.20;99.90;;;;;;5129289;27;20043;-74
2021/12/30 12:29:31;;;;;;;47.72;9.02;;;12.10;99.90;;;;;;5094483;28;20043;-74
2021/12/30 12:32:00;;;;;;;45.70;8.23;;;12.20;99.90;;;;;;5129146;27;20059;-72
2021/12/30 12:34:34;;;;;;;33.10;7.22;;;12.20;99.90;;;;;;5129043;27;20043;-74
2021/12/30 12:37:00;;;;;;;36.65;8.27;;;12.20;99.90;;;;;;5111881;28;20051;-80